createdAt,value
2019-04-28T00:01:03.361Z,101009.80
2019-04-28T00:02:10.941Z,101014.12
2019-04-28T00:03:13.130Z,101008.88
2019-04-28T00:04:15.749Z,101011.50
2019-04-28T00:05:21.122Z,101010.58
2019-04-28T00:06:24.422Z,101009.14
2019-04-28T00:07:27.801Z,101017.13
2019-04-28T00:08:31.926Z,101010.84
2019-04-28T00:09:35.685Z,101010.45
2019-04-28T00:10:41.710Z,101011.23
2019-04-28T00:11:44.212Z,101009.92
2019-04-28T00:12:48.535Z,101019.61
2019-04-28T00:13:53.689Z,101013.46
2019-04-28T00:14:56.514Z,101017.00
2019-04-28T00:16:01.608Z,101021.31
2019-04-28T00:17:05.068Z,101017.39
2019-04-28T00:18:08.012Z,101019.48
2019-04-28T00:19:12.337Z,101027.34
2019-04-28T00:20:21.353Z,101021.19
2019-04-28T00:21:31.927Z,101017.66
2019-04-28T00:22:41.920Z,101017.26
2019-04-28T00:24:03.444Z,101013.33
2019-04-28T00:25:31.121Z,101018.96
2019-04-28T00:26:47.290Z,101018.05
2019-04-28T00:27:51.595Z,101020.66
2019-04-28T00:28:55.694Z,101021.41
2019-04-28T00:29:58.998Z,101019.35
2019-04-28T00:31:02.464Z,101021.02
2019-04-28T00:32:04.714Z,101025.90
2019-04-28T00:33:06.939Z,101021.41
2019-04-28T00:34:11.296Z,101023.12
2019-04-28T00:35:13.122Z,101020.89
2019-04-28T00:36:15.322Z,101026.13
2019-04-28T00:37:25.994Z,101029.66
2019-04-28T00:38:28.203Z,101026.13
2019-04-28T00:39:31.070Z,101026.66
2019-04-28T00:40:33.423Z,101028.75
2019-04-28T00:41:35.638Z,101030.97
2019-04-28T00:42:37.868Z,101034.38
2019-04-28T00:43:41.829Z,101033.06
2019-04-28T00:44:44.073Z,101032.94
2019-04-28T00:45:46.278Z,101035.69
2019-04-28T00:46:48.488Z,101036.08
2019-04-28T00:47:51.092Z,101042.62
2019-04-28T00:48:53.331Z,101029.53
2019-04-28T00:49:55.623Z,101032.55
2019-04-28T00:51:01.672Z,101028.62
2019-04-28T00:52:03.109Z,101029.53
2019-04-28T00:53:05.338Z,101031.62
2019-04-28T00:54:07.564Z,101034.25
2019-04-28T00:55:11.017Z,101038.17
2019-04-28T00:56:13.388Z,101032.41
2019-04-28T00:57:15.591Z,101027.17
2019-04-28T00:58:17.859Z,101034.64
2019-04-28T00:59:21.726Z,101039.75
2019-04-28T01:00:25.638Z,101044.72
2019-04-28T01:01:51.304Z,101037.26
2019-04-28T01:02:53.752Z,101038.95
2019-04-28T01:03:55.980Z,101041.58
2019-04-28T01:04:58.213Z,101036.73
2019-04-28T01:06:01.883Z,101043.28
2019-04-28T01:07:04.301Z,101044.59
2019-04-28T01:08:08.236Z,101040.53
2019-04-28T01:09:11.846Z,101043.28
2019-04-28T01:10:14.158Z,101038.05
2019-04-28T01:11:16.358Z,101039.75
2019-04-28T01:12:18.566Z,101033.98
2019-04-28T01:13:21.480Z,101035.69
2019-04-28T01:14:24.592Z,101036.20
2019-04-28T01:15:37.308Z,101033.46
2019-04-28T01:16:49.816Z,101036.20
2019-04-28T01:17:58.022Z,101033.06
2019-04-28T01:19:07.996Z,101035.69
2019-04-28T01:20:11.260Z,101041.31
2019-04-28T01:21:13.462Z,101043.02
2019-04-28T01:22:17.603Z,101038.56
2019-04-28T01:23:20.376Z,101045.24
2019-04-28T01:24:22.648Z,101046.55
2019-04-28T01:25:24.838Z,101043.94
2019-04-28T01:26:27.048Z,101039.88
2019-04-28T01:27:50.294Z,101038.70
2019-04-28T01:28:52.063Z,101038.17
2019-04-28T01:30:05.364Z,101041.19
2019-04-28T01:31:21.281Z,101042.49
2019-04-28T01:32:31.327Z,101046.03
2019-04-28T01:34:04.392Z,101041.05
2019-04-28T01:35:06.611Z,101043.67
2019-04-28T01:36:10.344Z,101043.67
2019-04-28T01:37:12.698Z,101047.20
2019-04-28T01:38:14.993Z,101047.98
2019-04-28T01:39:17.305Z,101050.61
2019-04-28T01:40:20.557Z,101045.77
2019-04-28T01:41:22.922Z,101045.38
2019-04-28T01:42:25.127Z,101049.30
2019-04-28T01:43:27.323Z,101048.38
2019-04-28T01:44:29.822Z,101042.58
2019-04-28T01:45:32.095Z,101047.82
2019-04-28T01:46:34.311Z,101050.08
2019-04-28T01:47:36.497Z,101047.82
2019-04-28T01:48:39.817Z,101049.12
2019-04-28T01:49:42.184Z,101045.20
2019-04-28T01:50:44.392Z,101042.98
2019-04-28T01:51:46.616Z,101048.22
2019-04-28T01:52:49.698Z,101052.53
2019-04-28T01:53:52.703Z,101054.37
2019-04-28T01:54:54.945Z,101052.14
2019-04-28T01:55:57.160Z,101056.47
2019-04-28T01:57:01.362Z,101053.84
2019-04-28T01:58:03.243Z,101059.08
2019-04-28T01:59:05.462Z,101056.33
2019-04-28T02:00:22.336Z,101055.02
2019-04-28T02:01:13.097Z,101055.94
2019-04-28T02:02:15.299Z,101057.64
2019-04-28T02:03:17.513Z,101055.02
2019-04-28T02:04:19.788Z,101051.48
2019-04-28T02:05:21.948Z,101061.17
2019-04-28T02:06:24.157Z,101061.95
2019-04-28T02:07:26.361Z,101057.11
2019-04-28T02:08:30.195Z,101058.03
2019-04-28T02:09:32.599Z,101058.42
2019-04-28T02:10:34.797Z,101054.50
2019-04-28T02:11:37.032Z,101057.50
2019-04-28T02:12:59.814Z,101052.27
2019-04-28T02:14:03.640Z,101057.50
2019-04-28T02:15:05.851Z,101058.29
2019-04-28T02:16:09.748Z,101062.34
2019-04-28T02:17:12.065Z,101058.29
2019-04-28T02:18:14.266Z,101056.98
2019-04-28T02:19:16.462Z,101053.05
2019-04-28T02:20:20.168Z,101054.75
2019-04-28T02:21:40.445Z,101060.52
2019-04-28T02:22:54.191Z,101056.06
2019-04-28T02:24:15.345Z,101054.75
2019-04-28T02:25:17.572Z,101061.30
2019-04-28T02:26:19.771Z,101060.38
2019-04-28T02:27:22.189Z,101066.54
2019-04-28T02:28:24.391Z,101063.00
2019-04-28T02:29:26.621Z,101067.71
2019-04-28T02:30:44.161Z,101066.02
2019-04-28T02:31:32.656Z,101068.63
2019-04-28T02:32:34.864Z,101073.87
2019-04-28T02:33:37.050Z,101072.95
2019-04-28T02:34:41.079Z,101072.16
2019-04-28T02:35:43.229Z,101068.50
2019-04-28T02:36:45.428Z,101071.11
2019-04-28T02:37:50.019Z,101075.57
2019-04-28T02:38:51.577Z,101071.11
2019-04-28T02:39:53.834Z,101072.03
2019-04-28T02:40:56.024Z,101070.59
2019-04-28T02:42:00.980Z,101074.13
2019-04-28T02:43:02.074Z,101075.83
2019-04-28T02:44:04.271Z,101073.20
2019-04-28T02:45:06.574Z,101084.20
2019-04-28T02:46:10.555Z,101077.66
2019-04-28T02:47:12.632Z,101080.67
2019-04-28T02:48:21.195Z,101077.13
2019-04-28T02:49:30.635Z,101073.20
2019-04-28T02:50:50.968Z,101077.53
2019-04-28T02:52:12.352Z,101074.91
2019-04-28T02:53:40.930Z,101079.36
2019-04-28T02:54:43.276Z,101077.92
2019-04-28T02:55:45.516Z,101077.92
2019-04-28T02:56:47.701Z,101075.69
2019-04-28T02:57:51.716Z,101075.69
2019-04-28T02:58:53.751Z,101072.55
2019-04-28T02:59:55.954Z,101077.39
2019-04-28T03:01:06.182Z,101080.02
2019-04-28T03:02:02.008Z,101074.77
2019-04-28T03:03:04.203Z,101080.41
2019-04-28T03:04:06.450Z,101080.80
2019-04-28T03:05:11.483Z,101082.23
2019-04-28T03:06:12.492Z,101074.61
2019-04-28T03:07:14.848Z,101079.09
2019-04-28T03:08:17.117Z,101080.80
2019-04-28T03:09:20.233Z,101080.41
2019-04-28T03:10:22.627Z,101079.09
2019-04-28T03:11:24.828Z,101076.30
2019-04-28T03:12:27.021Z,101075.00
2019-04-28T03:13:31.125Z,101076.70
2019-04-28T03:14:33.073Z,101079.48
2019-04-28T03:15:35.292Z,101078.92
2019-04-28T03:16:37.492Z,101071.85
2019-04-28T03:17:40.734Z,101078.01
2019-04-28T03:18:43.215Z,101078.92
2019-04-28T03:19:45.407Z,101081.55
2019-04-28T03:20:47.642Z,101084.94
2019-04-28T03:21:50.991Z,101086.25
2019-04-28T03:22:53.572Z,101081.41
2019-04-28T03:23:55.801Z,101084.81
2019-04-28T03:25:00.887Z,101083.89
2019-04-28T03:26:11.209Z,101087.95
2019-04-28T03:27:25.887Z,101090.57
2019-04-28T03:28:47.025Z,101090.05
2019-04-28T03:29:53.932Z,101091.88
2019-04-28T03:31:48.928Z,101090.96
2019-04-28T03:32:52.975Z,101091.35
2019-04-28T03:33:53.942Z,101092.66
2019-04-28T03:34:53.698Z,101095.14
2019-04-28T03:35:56.083Z,101094.75
2019-04-28T03:37:00.316Z,101091.22
2019-04-28T03:38:02.174Z,101098.68
2019-04-28T03:39:06.470Z,101088.60
2019-04-28T03:40:10.864Z,101095.53
2019-04-28T03:41:12.523Z,101089.91
2019-04-28T03:42:14.716Z,101095.53
2019-04-28T03:43:16.954Z,101094.23
2019-04-28T03:44:20.778Z,101090.69
2019-04-28T03:45:30.170Z,101098.16
2019-04-28T03:46:33.804Z,101102.08
2019-04-28T03:47:35.995Z,101101.55
2019-04-28T03:48:40.769Z,101098.16
2019-04-28T03:49:43.295Z,101095.92
2019-04-28T03:50:45.676Z,101098.55
2019-04-28T03:51:50.541Z,101095.02
2019-04-28T03:52:51.737Z,101094.09
2019-04-28T03:53:53.973Z,101093.17
2019-04-28T03:54:56.170Z,101090.56
2019-04-28T03:56:01.190Z,101100.64
2019-04-28T03:57:02.211Z,101099.72
2019-04-28T03:58:04.418Z,101101.03
2019-04-28T03:59:06.644Z,101093.56
2019-04-28T04:00:10.992Z,101095.80
2019-04-28T04:01:13.342Z,101103.65
2019-04-28T04:02:15.539Z,101107.05
2019-04-28T04:03:20.646Z,101107.58
2019-04-28T04:04:21.614Z,101100.50
2019-04-28T04:05:23.752Z,101104.04
2019-04-28T04:06:25.944Z,101104.43
2019-04-28T04:07:30.854Z,101106.12
2019-04-28T04:08:32.023Z,101104.82
2019-04-28T04:09:55.936Z,101110.58
2019-04-28T04:11:20.329Z,101108.75
2019-04-28T04:12:51.084Z,101114.38
2019-04-28T04:14:12.371Z,101113.45
2019-04-28T04:15:24.775Z,101114.77
2019-04-28T04:16:55.260Z,101112.15
2019-04-28T04:18:21.062Z,101113.45
2019-04-28T04:19:23.467Z,101114.77
2019-04-28T04:20:25.672Z,101116.47
2019-04-28T04:21:30.807Z,101108.61
2019-04-28T04:22:31.737Z,101116.86
2019-04-28T04:23:33.945Z,101114.23
2019-04-28T04:24:36.154Z,101117.25
2019-04-28T04:25:38.355Z,101113.84
2019-04-28T04:26:42.247Z,101118.16
2019-04-28T04:27:44.434Z,101120.25
2019-04-28T04:28:46.667Z,101116.33
2019-04-28T04:29:50.925Z,101118.95
2019-04-28T04:30:52.717Z,101119.86
2019-04-28T04:32:10.252Z,101116.72
2019-04-28T04:33:01.309Z,101125.88
2019-04-28T04:34:03.345Z,101121.95
2019-04-28T04:35:05.789Z,101127.19
2019-04-28T04:36:07.991Z,101125.88
2019-04-28T04:37:12.572Z,101127.55
2019-04-28T04:38:14.031Z,101128.11
2019-04-28T04:39:16.231Z,101126.23
2019-04-28T04:40:20.800Z,101130.16
2019-04-28T04:41:22.294Z,101127.55
2019-04-28T04:42:24.495Z,101134.48
2019-04-28T04:43:26.728Z,101132.25
2019-04-28T04:44:30.982Z,101133.56
2019-04-28T04:45:32.806Z,101135.40
2019-04-28T04:46:35.006Z,101133.17
2019-04-28T04:47:37.214Z,101137.48
2019-04-28T04:48:40.776Z,101130.42
2019-04-28T04:49:43.065Z,101132.25
2019-04-28T04:50:45.258Z,101133.95
2019-04-28T04:51:47.471Z,101131.73
2019-04-28T04:52:50.210Z,101128.72
2019-04-28T04:53:52.627Z,101131.73
2019-04-28T04:54:54.833Z,101135.66
2019-04-28T04:55:57.037Z,101128.58
2019-04-28T04:57:00.029Z,101134.34
2019-04-28T04:58:02.441Z,101138.27
2019-04-28T04:59:04.599Z,101132.91
2019-04-28T05:00:10.030Z,101136.44
2019-04-28T05:01:20.375Z,101134.73
2019-04-28T05:02:33.060Z,101133.42
2019-04-28T05:03:35.730Z,101132.91
2019-04-28T05:04:51.656Z,101135.52
2019-04-28T05:05:53.839Z,101139.05
2019-04-28T05:06:56.045Z,101139.05
2019-04-28T05:08:00.242Z,101145.98
2019-04-28T05:09:02.108Z,101138.13
2019-04-28T05:10:04.339Z,101145.98
2019-04-28T05:11:06.537Z,101139.84
2019-04-28T05:12:09.684Z,101147.69
2019-04-28T05:13:12.077Z,101149.78
2019-04-28T05:14:14.265Z,101149.91
2019-04-28T05:15:16.498Z,101144.15
2019-04-28T05:16:19.769Z,101145.45
2019-04-28T05:17:22.026Z,101151.08
2019-04-28T05:18:24.227Z,101153.31
2019-04-28T05:19:26.353Z,101154.62
2019-04-28T05:20:30.233Z,101154.48
2019-04-28T05:21:33.437Z,101156.71
2019-04-28T05:22:42.524Z,101157.62
2019-04-28T05:24:09.240Z,101161.16
2019-04-28T05:25:17.745Z,101160.25
2019-04-28T05:26:21.366Z,101164.03
2019-04-28T05:27:25.612Z,101163.25
2019-04-28T05:28:30.604Z,101167.05
2019-04-28T05:29:31.261Z,101167.95
2019-04-28T05:30:34.794Z,101170.19
2019-04-28T05:31:37.249Z,101167.05
2019-04-28T05:32:45.215Z,101168.87
2019-04-28T05:33:43.289Z,101165.73
2019-04-28T05:34:46.751Z,101167.05
2019-04-28T05:35:50.099Z,101164.42
2019-04-28T05:36:52.313Z,101166.66
2019-04-28T05:37:54.494Z,101166.13
2019-04-28T05:38:56.714Z,101165.73
2019-04-28T05:40:00.882Z,101169.66
2019-04-28T05:41:02.985Z,101170.97
2019-04-28T05:42:05.206Z,101167.44
2019-04-28T05:43:07.447Z,101166.13
2019-04-28T05:44:10.131Z,101175.28
2019-04-28T05:45:12.381Z,101167.82
2019-04-28T05:46:14.582Z,101175.28
2019-04-28T05:47:16.785Z,101174.36
2019-04-28T05:48:36.075Z,101173.98
2019-04-28T05:49:47.562Z,101174.76
2019-04-28T05:50:59.941Z,101176.98
2019-04-28T05:52:09.627Z,101177.77
2019-04-28T05:53:21.712Z,101180.91
2019-04-28T05:54:31.530Z,101182.61
2019-04-28T05:55:47.063Z,101183.78
2019-04-28T05:57:11.607Z,101183.00
2019-04-28T05:58:32.766Z,101187.31
2019-04-28T06:00:03.325Z,101185.62
2019-04-28T06:01:15.631Z,101187.70
2019-04-28T06:02:22.211Z,101187.70
2019-04-28T06:03:24.518Z,101196.09
2019-04-28T06:04:27.853Z,101190.85
2019-04-28T06:05:31.802Z,101189.93
2019-04-28T06:06:37.830Z,101191.63
2019-04-28T06:07:49.372Z,101190.71
2019-04-28T06:09:10.549Z,101196.34
2019-04-28T06:10:12.763Z,101194.64
2019-04-28T06:11:35.205Z,101193.33
2019-04-28T06:12:37.395Z,101198.17
2019-04-28T06:13:40.150Z,101203.80
2019-04-28T06:14:42.402Z,101199.87
2019-04-28T06:15:44.623Z,101195.42
2019-04-28T06:16:46.846Z,101205.11
2019-04-28T06:17:49.852Z,101204.58
2019-04-28T06:18:52.174Z,101210.34
2019-04-28T06:19:54.362Z,101205.89
2019-04-28T06:20:56.571Z,101208.50
2019-04-28T06:21:58.774Z,101209.81
2019-04-28T06:23:00.999Z,101213.34
2019-04-28T06:24:03.206Z,101208.50
2019-04-28T06:25:05.460Z,101211.52
2019-04-28T06:26:07.674Z,101212.43
2019-04-28T06:27:09.874Z,101212.82
2019-04-28T06:28:12.091Z,101211.87
2019-04-28T06:29:14.309Z,101212.82
2019-04-28T06:30:16.501Z,101213.17
2019-04-28T06:31:18.704Z,101215.80
2019-04-28T06:32:20.898Z,101208.89
2019-04-28T06:33:23.092Z,101208.33
2019-04-28T06:34:25.315Z,101212.25
2019-04-28T06:35:27.522Z,101206.10
2019-04-28T06:36:29.737Z,101212.25
2019-04-28T06:37:31.944Z,101210.95
2019-04-28T06:38:34.151Z,101206.63
2019-04-28T06:39:36.363Z,101210.03
2019-04-28T06:40:38.571Z,101206.49
2019-04-28T06:41:40.786Z,101205.19
2019-04-28T06:42:42.998Z,101205.19
2019-04-28T06:43:45.205Z,101206.49
2019-04-28T06:44:47.418Z,101201.61
2019-04-28T06:45:49.630Z,101205.19
2019-04-28T06:46:51.838Z,101208.72
2019-04-28T06:47:54.046Z,101203.88
2019-04-28T06:48:56.257Z,101197.33
2019-04-28T06:49:58.472Z,101197.86
2019-04-28T06:51:00.710Z,101192.09
2019-04-28T06:52:02.933Z,101193.02
2019-04-28T06:53:05.136Z,101190.02
2019-04-28T06:54:07.342Z,101203.66
2019-04-28T06:55:09.540Z,101205.50
2019-04-28T06:56:11.772Z,101204.97
2019-04-28T06:57:13.977Z,101216.36
2019-04-28T06:58:16.183Z,101213.73
2019-04-28T06:59:18.394Z,101212.82
2019-04-28T07:00:20.588Z,101221.98
2019-04-28T07:01:22.809Z,101222.72
2019-04-28T07:02:25.019Z,101230.19
2019-04-28T07:03:27.245Z,101224.03
2019-04-28T07:04:29.443Z,101231.36
2019-04-28T07:05:31.651Z,101230.58
2019-04-28T07:06:33.876Z,101228.34
2019-04-28T07:07:36.054Z,101229.09
2019-04-28T07:08:38.292Z,101231.18
2019-04-28T07:09:40.616Z,101239.95
2019-04-28T07:10:42.854Z,101242.74
2019-04-28T07:11:45.080Z,101242.95
2019-04-28T07:12:47.314Z,101251.73
2019-04-28T07:13:49.528Z,101246.49
2019-04-28T07:14:51.730Z,101249.89
2019-04-28T07:15:53.942Z,101254.73
2019-04-28T07:16:56.166Z,101253.42
2019-04-28T07:17:58.369Z,101262.20
2019-04-28T07:19:00.614Z,101255.13
2019-04-28T07:20:13.473Z,101259.83
2019-04-28T07:21:40.644Z,101260.36
2019-04-28T07:22:42.850Z,101259.44
2019-04-28T07:23:45.037Z,101258.91
2019-04-28T07:24:47.240Z,101260.75
2019-04-28T07:25:49.448Z,101257.20
2019-04-28T07:26:51.688Z,101258.91
2019-04-28T07:27:53.872Z,101262.44
2019-04-28T07:28:56.074Z,101266.76
2019-04-28T07:29:58.214Z,101267.29
2019-04-28T07:31:00.430Z,101273.44
2019-04-28T07:32:02.630Z,101269.38
2019-04-28T07:33:04.826Z,101267.29
2019-04-28T07:34:07.023Z,101261.91
2019-04-28T07:35:09.257Z,101266.23
2019-04-28T07:36:11.384Z,101268.06
2019-04-28T07:37:13.677Z,101271.99
2019-04-28T07:38:15.894Z,101267.14
2019-04-28T07:39:18.100Z,101271.08
2019-04-28T07:40:20.336Z,101271.08
2019-04-28T07:41:22.559Z,101264.53
2019-04-28T07:42:24.762Z,101268.45
2019-04-28T07:43:27.009Z,101269.77
2019-04-28T07:44:29.217Z,101276.30
2019-04-28T07:45:31.460Z,101274.47
2019-04-28T07:46:33.658Z,101270.55
2019-04-28T07:47:35.865Z,101270.16
2019-04-28T07:48:38.069Z,101275.39
2019-04-28T07:49:40.273Z,101275.78
2019-04-28T07:50:42.565Z,101274.08
2019-04-28T07:51:57.800Z,101278.00
2019-04-28T07:53:11.773Z,101275.00
2019-04-28T07:54:16.289Z,101277.23
2019-04-28T07:55:18.509Z,101278.39
2019-04-28T07:56:20.749Z,101275.39
2019-04-28T07:57:24.186Z,101274.47
2019-04-28T07:58:26.469Z,101281.54
2019-04-28T07:59:28.674Z,101281.02
2019-04-28T08:00:31.527Z,101280.09
2019-04-28T08:01:33.770Z,101282.31
2019-04-28T08:02:35.970Z,101285.86
2019-04-28T08:03:48.676Z,101280.09
2019-04-28T08:04:42.035Z,101283.09
2019-04-28T08:05:44.251Z,101284.94
2019-04-28T08:06:46.543Z,101287.94
2019-04-28T08:07:48.768Z,101290.17
2019-04-28T08:08:50.970Z,101286.63
2019-04-28T08:09:53.182Z,101292.39
2019-04-28T08:10:55.387Z,101287.55
2019-04-28T08:11:57.605Z,101291.48
2019-04-28T08:12:59.772Z,101292.39
2019-04-28T08:14:02.008Z,101294.09
2019-04-28T08:15:04.296Z,101296.71
2019-04-28T08:16:06.509Z,101301.95
2019-04-28T08:17:08.747Z,101299.33
2019-04-28T08:18:10.956Z,101300.64
2019-04-28T08:19:13.175Z,101307.56
2019-04-28T08:20:15.372Z,101298.80
2019-04-28T08:21:17.588Z,101307.95
2019-04-28T08:22:19.834Z,101310.58
2019-04-28T08:23:22.051Z,101302.19
2019-04-28T08:24:24.259Z,101310.58
2019-04-28T08:25:26.489Z,101307.81
2019-04-28T08:26:28.704Z,101313.19
2019-04-28T08:27:30.948Z,101314.89
2019-04-28T08:28:33.177Z,101314.50
2019-04-28T08:29:35.369Z,101313.58
2019-04-28T08:30:37.591Z,101317.89
2019-04-28T08:31:52.874Z,101321.81
2019-04-28T08:33:17.090Z,101317.50
2019-04-28T08:34:19.581Z,101318.28
2019-04-28T08:35:21.804Z,101326.66
2019-04-28T08:36:24.009Z,101327.97
2019-04-28T08:37:26.222Z,101321.81
2019-04-28T08:38:28.397Z,101324.83
2019-04-28T08:39:30.609Z,101328.36
2019-04-28T08:40:32.847Z,101326.13
2019-04-28T08:41:35.058Z,101326.13
2019-04-28T08:42:37.268Z,101327.05
2019-04-28T08:43:39.480Z,101323.91
2019-04-28T08:44:41.693Z,101328.75
2019-04-28T08:45:43.945Z,101326.66
2019-04-28T08:46:46.155Z,101326.13
2019-04-28T08:47:48.423Z,101327.44
2019-04-28T08:48:50.634Z,101328.75
2019-04-28T08:49:52.846Z,101330.06
2019-04-28T08:50:55.064Z,101329.14
2019-04-28T08:51:57.289Z,101328.61
2019-04-28T08:52:59.520Z,101333.98
2019-04-28T08:54:01.739Z,101333.06
2019-04-28T08:55:03.957Z,101336.98
2019-04-28T08:56:06.168Z,101329.92
2019-04-28T08:57:08.395Z,101340.52
2019-04-28T08:58:10.633Z,101341.83
2019-04-28T08:59:12.838Z,101344.45
2019-04-28T09:00:16.366Z,101343.53
2019-04-28T09:01:18.578Z,101349.69
2019-04-28T09:02:20.804Z,101353.22
2019-04-28T09:03:23.054Z,101354.53
2019-04-28T09:04:25.265Z,101360.16
2019-04-28T09:05:27.470Z,101356.61
2019-04-28T09:06:29.680Z,101364.47
2019-04-28T09:07:31.901Z,101357.78
2019-04-28T09:08:34.139Z,101356.86
2019-04-28T09:09:36.362Z,101362.09
2019-04-28T09:10:38.557Z,101367.47
2019-04-28T09:11:40.856Z,101365.77
2019-04-28T09:12:43.075Z,101368.25
2019-04-28T09:13:45.332Z,101368.64
2019-04-28T09:14:48.553Z,101364.70
2019-04-28T09:15:50.779Z,101367.33
2019-04-28T09:16:53.016Z,101368.25
2019-04-28T09:17:55.210Z,101366.94
2019-04-28T09:18:57.455Z,101366.94
2019-04-28T09:19:59.673Z,101363.79
2019-04-28T09:21:01.885Z,101370.69
2019-04-28T09:22:04.296Z,101372.95
2019-04-28T09:23:06.519Z,101366.77
2019-04-28T09:24:08.728Z,101374.26
2019-04-28T09:25:10.937Z,101369.37
2019-04-28T09:26:13.182Z,101372.95
2019-04-28T09:27:15.595Z,101366.41
2019-04-28T09:28:17.978Z,101371.64
2019-04-28T09:29:20.201Z,101363.22
2019-04-28T09:30:22.398Z,101372.37
2019-04-28T09:31:24.628Z,101372.95
2019-04-28T09:32:26.894Z,101368.06
2019-04-28T09:33:29.058Z,101372.77
2019-04-28T09:34:32.422Z,101368.06
2019-04-28T09:35:34.590Z,101367.15
2019-04-28T09:36:36.806Z,101374.26
2019-04-28T09:37:39.024Z,101377.23
2019-04-28T09:38:41.247Z,101374.61
2019-04-28T09:39:57.714Z,101382.46
2019-04-28T09:40:59.915Z,101378.39
2019-04-28T09:42:39.528Z,101382.84
2019-04-28T09:43:59.449Z,101386.39
2019-04-28T09:45:02.112Z,101381.39
2019-04-28T09:46:12.085Z,101386.77
2019-04-28T09:47:14.354Z,101389.00
2019-04-28T09:48:16.554Z,101391.09
2019-04-28T09:49:18.792Z,101389.39
2019-04-28T09:50:21.030Z,101395.94
2019-04-28T09:51:23.236Z,101392.92
2019-04-28T09:52:25.460Z,101395.02
2019-04-28T09:53:27.695Z,101394.09
2019-04-28T09:54:29.908Z,101396.32
2019-04-28T09:55:32.126Z,101399.47
2019-04-28T09:56:34.362Z,101397.23
2019-04-28T09:57:36.574Z,101398.55
2019-04-28T09:58:38.775Z,101399.12
2019-04-28T09:59:41.011Z,101398.94
2019-04-28T10:00:43.319Z,101396.32
2019-04-28T10:01:45.547Z,101390.55
2019-04-28T10:02:47.767Z,101399.86
2019-04-28T10:03:49.976Z,101401.16
2019-04-28T10:04:52.199Z,101394.48
2019-04-28T10:05:54.468Z,101394.62
2019-04-28T10:06:56.679Z,101388.47
2019-04-28T10:07:59.890Z,101393.31
2019-04-28T10:09:02.112Z,101390.70
2019-04-28T10:10:04.333Z,101386.77
2019-04-28T10:11:06.563Z,101389.78
2019-04-28T10:12:08.780Z,101391.27
2019-04-28T10:13:10.972Z,101392.01
2019-04-28T10:14:13.201Z,101391.62
2019-04-28T10:15:15.414Z,101392.92
2019-04-28T10:16:17.652Z,101394.23
2019-04-28T10:17:19.868Z,101399.86
2019-04-28T10:18:22.076Z,101397.62
2019-04-28T10:19:24.328Z,101393.70
2019-04-28T10:20:26.520Z,101397.62
2019-04-28T10:21:28.736Z,101396.32
2019-04-28T10:22:30.946Z,101399.47
2019-04-28T10:23:33.190Z,101397.23
2019-04-28T10:24:35.444Z,101401.16
2019-04-28T10:25:37.670Z,101395.02
2019-04-28T10:26:39.872Z,101399.33
2019-04-28T10:27:42.082Z,101405.87
2019-04-28T10:28:44.280Z,101403.64
2019-04-28T10:29:46.503Z,101401.55
2019-04-28T10:30:48.712Z,101406.40
2019-04-28T10:31:50.945Z,101408.09
2019-04-28T10:32:53.154Z,101401.55
2019-04-28T10:33:58.712Z,101400.25
2019-04-28T10:35:00.943Z,101408.48
2019-04-28T10:36:03.167Z,101407.70
2019-04-28T10:37:05.391Z,101402.33
2019-04-28T10:38:07.611Z,101406.64
2019-04-28T10:39:41.153Z,101399.71
2019-04-28T10:40:49.998Z,101403.25
2019-04-28T10:41:52.219Z,101401.41
2019-04-28T10:42:54.432Z,101403.25
2019-04-28T10:43:56.648Z,101404.17
2019-04-28T10:44:58.885Z,101401.94
2019-04-28T10:46:01.110Z,101407.70
2019-04-28T10:47:03.319Z,101403.64
2019-04-28T10:48:06.028Z,101404.95
2019-04-28T10:49:08.257Z,101402.86
2019-04-28T10:50:10.482Z,101405.48
2019-04-28T10:51:12.607Z,101406.78
2019-04-28T10:52:14.828Z,101402.86
2019-04-28T10:53:17.071Z,101400.63
2019-04-28T10:54:19.271Z,101406.40
2019-04-28T10:55:21.495Z,101404.55
2019-04-28T10:56:23.713Z,101402.86
2019-04-28T10:57:25.950Z,101406.25
2019-04-28T10:58:28.150Z,101404.41
2019-04-28T10:59:30.466Z,101407.56
2019-04-28T11:00:34.126Z,101404.02
2019-04-28T11:01:36.341Z,101407.03
2019-04-28T11:02:41.110Z,101406.64
2019-04-28T11:03:45.508Z,101407.03
2019-04-28T11:05:08.207Z,101411.88
2019-04-28T11:06:04.139Z,101409.11
2019-04-28T11:07:06.546Z,101417.11
2019-04-28T11:08:13.795Z,101409.65
2019-04-28T11:09:31.001Z,101417.50
2019-04-28T11:10:33.303Z,101419.19
2019-04-28T11:11:35.509Z,101422.73
2019-04-28T11:12:37.721Z,101424.42
2019-04-28T11:13:39.923Z,101414.49
2019-04-28T11:14:42.133Z,101415.66
2019-04-28T11:15:44.362Z,101414.88
2019-04-28T11:16:46.566Z,101425.34
2019-04-28T11:17:48.784Z,101419.58
2019-04-28T11:18:51.007Z,101422.73
2019-04-28T11:19:53.235Z,101422.20
2019-04-28T11:20:55.435Z,101429.66
2019-04-28T11:21:57.650Z,101431.74
2019-04-28T11:22:59.874Z,101431.74
2019-04-28T11:24:02.099Z,101435.28
2019-04-28T11:25:04.313Z,101435.67
2019-04-28T11:26:06.467Z,101428.59
2019-04-28T11:27:09.378Z,101431.20
2019-04-28T11:28:11.587Z,101442.59
2019-04-28T11:29:13.826Z,101436.97
2019-04-28T11:30:16.856Z,101440.90
2019-04-28T11:31:19.091Z,101439.98
2019-04-28T11:32:21.346Z,101441.29
2019-04-28T11:33:33.730Z,101441.67
2019-04-28T11:34:52.947Z,101442.98
2019-04-28T11:35:55.187Z,101442.06
2019-04-28T11:36:57.401Z,101446.38
2019-04-28T11:37:59.716Z,101448.84
2019-04-28T11:39:01.934Z,101448.36
2019-04-28T11:40:04.173Z,101447.59
2019-04-28T11:41:06.713Z,101451.66
2019-04-28T11:42:08.933Z,101449.81
2019-04-28T11:43:11.145Z,101447.05
2019-04-28T11:44:13.546Z,101449.42
2019-04-28T11:45:15.772Z,101452.66
2019-04-28T11:46:19.600Z,101452.95
2019-04-28T11:47:23.125Z,101451.41
2019-04-28T11:48:25.361Z,101449.23
2019-04-28T11:49:27.597Z,101453.55
2019-04-28T11:50:29.800Z,101455.10
2019-04-28T11:51:32.113Z,101459.52
2019-04-28T11:52:34.325Z,101453.42
2019-04-28T11:53:38.239Z,101457.95
2019-04-28T11:54:40.461Z,101458.09
2019-04-28T11:55:42.674Z,101460.83
2019-04-28T11:56:44.913Z,101466.20
2019-04-28T11:57:47.184Z,101463.59
2019-04-28T11:58:49.401Z,101458.73
2019-04-28T11:59:53.907Z,101466.59
2019-04-28T12:00:55.682Z,101464.75
2019-04-28T12:01:57.872Z,101466.45
2019-04-28T12:03:00.092Z,101465.14
2019-04-28T12:04:04.031Z,101464.89
2019-04-28T12:05:06.408Z,101466.98
2019-04-28T12:06:08.641Z,101466.45
2019-04-28T12:07:10.865Z,101465.14
2019-04-28T12:08:13.077Z,101473.77
2019-04-28T12:09:32.710Z,101468.00
2019-04-28T12:10:38.934Z,101471.53
2019-04-28T12:11:44.315Z,101470.05
2019-04-28T12:13:01.187Z,101477.16
2019-04-28T12:14:22.569Z,101471.75